createdAt,value
2019-05-02T00:00:50.059Z,27.40
2019-05-02T00:03:20.326Z,30.27
2019-05-02T00:05:49.327Z,26.80
2019-05-02T00:08:18.418Z,28.00
2019-05-02T00:10:48.374Z,26.80
2019-05-02T00:13:18.279Z,31.90
2019-05-02T00:15:48.551Z,30.50
2019-05-02T00:18:18.378Z,29.40
2019-05-02T00:20:47.201Z,31.40
2019-05-02T00:23:16.927Z,31.33
2019-05-02T00:25:47.297Z,32.07
2019-05-02T00:28:16.019Z,29.13
2019-05-02T00:30:44.845Z,34.83
2019-05-02T00:33:13.451Z,35.63
2019-05-02T00:35:46.221Z,29.77
2019-05-02T00:38:12.987Z,31.27
2019-05-02T00:40:41.538Z,34.53
2019-05-02T00:43:10.132Z,29.87
2019-05-02T00:45:38.820Z,26.13
2019-05-02T00:48:23.099Z,29.37
2019-05-02T00:50:52.529Z,31.30
2019-05-02T00:53:21.495Z,31.20
2019-05-02T00:55:50.046Z,26.47
2019-05-02T00:58:18.599Z,27.33
2019-05-02T01:01:00.817Z,27.13
2019-05-02T01:03:32.057Z,36.70
2019-05-02T01:06:00.775Z,31.67
2019-05-02T01:08:30.936Z,28.47
2019-05-02T01:10:59.504Z,31.73
2019-05-02T01:13:27.962Z,28.20
2019-05-02T01:15:56.520Z,32.70
2019-05-02T01:18:24.971Z,28.60
2019-05-02T01:20:53.531Z,27.30
2019-05-02T01:23:23.035Z,25.90
2019-05-02T01:25:52.775Z,29.70
2019-05-02T01:28:26.642Z,31.00
2019-05-02T01:30:59.911Z,28.27
2019-05-02T01:33:30.151Z,27.70
2019-05-02T01:36:08.001Z,29.97
2019-05-02T01:38:38.188Z,28.57
2019-05-02T01:41:07.078Z,27.10
2019-05-02T01:43:35.567Z,26.57
2019-05-02T01:46:04.118Z,27.10
2019-05-02T01:48:32.930Z,25.33
2019-05-02T01:51:07.946Z,29.00
2019-05-02T01:53:34.143Z,30.03
2019-05-02T01:56:01.843Z,23.77
2019-05-02T01:58:30.777Z,29.13
2019-05-02T02:00:59.332Z,27.60
2019-05-02T02:03:27.863Z,28.23
2019-05-02T02:05:56.467Z,25.90
2019-05-02T02:08:27.425Z,23.20
2019-05-02T02:10:58.112Z,25.80
2019-05-02T02:13:26.263Z,33.07
2019-05-02T02:15:55.457Z,26.33
2019-05-02T02:18:27.732Z,28.10
2019-05-02T02:21:02.616Z,41.13
2019-05-02T02:23:50.961Z,33.70
2019-05-02T02:26:24.152Z,29.00
2019-05-02T02:28:52.855Z,32.03
2019-05-02T02:31:22.140Z,31.30
2019-05-02T02:33:50.673Z,29.10
2019-05-02T02:36:30.029Z,31.10
2019-05-02T02:38:49.473Z,30.80
2019-05-02T02:41:18.073Z,28.57
2019-05-02T02:43:48.700Z,29.00
2019-05-02T02:46:18.852Z,27.17
2019-05-02T02:48:47.408Z,31.00
2019-05-02T02:51:24.016Z,28.63
2019-05-02T02:53:46.536Z,26.40
2019-05-02T02:56:14.996Z,30.37
2019-05-02T02:58:46.346Z,29.27
2019-05-02T03:01:14.208Z,33.33
2019-05-02T03:03:42.837Z,27.60
2019-05-02T03:06:11.441Z,28.10
2019-05-02T03:08:46.276Z,27.03
2019-05-02T03:11:22.375Z,28.90
2019-05-02T03:13:52.523Z,27.20
2019-05-02T03:16:18.537Z,25.03
2019-05-02T03:18:47.099Z,26.97
2019-05-02T03:21:20.906Z,27.90
2019-05-02T03:23:45.899Z,25.83
2019-05-02T03:26:15.606Z,29.07
2019-05-02T03:28:44.728Z,26.03
2019-05-02T03:31:24.245Z,28.60
2019-05-02T03:33:55.147Z,33.57
2019-05-02T03:36:29.607Z,30.80
2019-05-02T03:38:44.304Z,35.47
2019-05-02T03:41:19.946Z,31.43
2019-05-02T03:43:44.104Z,32.60
2019-05-02T03:46:13.406Z,33.17
2019-05-02T03:48:43.195Z,31.53
2019-05-02T03:51:19.821Z,30.50
2019-05-02T03:53:42.346Z,32.93
2019-05-02T03:56:13.696Z,30.53
2019-05-02T03:58:41.079Z,32.10
2019-05-02T04:01:10.007Z,35.57
2019-05-02T04:03:41.070Z,31.40
2019-05-02T04:06:18.213Z,33.50
2019-05-02T04:08:40.000Z,31.50
2019-05-02T04:11:17.366Z,29.20
2019-05-02T04:13:45.892Z,32.20
2019-05-02T04:16:17.543Z,28.40
2019-05-02T04:18:54.460Z,31.37
2019-05-02T04:21:24.383Z,27.90
2019-05-02T04:23:48.295Z,33.40
2019-05-02T04:26:17.895Z,34.47
2019-05-02T04:28:51.580Z,26.63
2019-05-02T04:31:16.812Z,30.93
2019-05-02T04:33:45.441Z,28.37
2019-05-02T04:36:17.539Z,30.07
2019-05-02T04:38:48.824Z,29.13
2019-05-02T04:41:18.776Z,31.63
2019-05-02T04:43:54.474Z,32.00
2019-05-02T04:46:22.305Z,32.47
2019-05-02T04:48:49.842Z,32.07
2019-05-02T04:51:17.503Z,29.90
2019-05-02T04:53:45.811Z,31.93
2019-05-02T04:56:14.345Z,29.33
2019-05-02T04:58:42.897Z,35.30
2019-05-02T05:01:11.429Z,32.27
2019-05-02T05:03:39.979Z,28.63
2019-05-02T05:06:12.171Z,34.40
2019-05-02T05:08:41.593Z,29.10
2019-05-02T05:11:08.815Z,29.47
2019-05-02T05:13:37.639Z,31.87
2019-05-02T05:16:08.166Z,30.57
2019-05-02T05:18:37.876Z,30.43
2019-05-02T05:21:10.312Z,31.33
2019-05-02T05:23:51.860Z,28.20
2019-05-02T05:26:17.870Z,27.20
2019-05-02T05:28:47.654Z,30.77
2019-05-02T05:31:23.651Z,35.43
2019-05-02T05:33:47.891Z,28.83
2019-05-02T05:36:19.816Z,27.03
2019-05-02T05:38:47.848Z,31.87
2019-05-02T05:41:20.175Z,26.43
2019-05-02T05:43:50.079Z,27.70
2019-05-02T05:46:17.805Z,30.80
2019-05-02T05:48:47.656Z,27.83
2019-05-02T05:51:20.434Z,30.27
2019-05-02T05:53:47.899Z,30.00
2019-05-02T05:56:18.005Z,35.50
2019-05-02T05:58:51.362Z,37.30
2019-05-02T06:01:20.059Z,43.63
2019-05-02T06:03:47.489Z,29.50
2019-05-02T06:06:22.808Z,29.63
2019-05-02T06:08:49.112Z,29.60
2019-05-02T06:11:19.987Z,37.53
2019-05-02T06:13:48.684Z,29.63
2019-05-02T06:16:17.033Z,32.40
2019-05-02T06:18:45.695Z,33.63
2019-05-02T06:21:16.992Z,32.63
2019-05-02T06:23:44.441Z,37.73
2019-05-02T06:26:15.205Z,29.77
2019-05-02T06:28:43.799Z,34.13
2019-05-02T06:31:12.691Z,31.83
2019-05-02T06:33:41.583Z,37.60
2019-05-02T06:36:10.216Z,31.27
2019-05-02T06:38:38.751Z,30.87
2019-05-02T06:41:07.233Z,35.83
2019-05-02T06:43:35.835Z,33.90
2019-05-02T06:46:15.638Z,36.83
2019-05-02T06:48:35.186Z,39.30
2019-05-02T06:51:03.647Z,35.80
2019-05-02T06:53:34.996Z,40.40
2019-05-02T06:56:02.411Z,39.40
2019-05-02T06:58:30.872Z,38.07
2019-05-02T07:00:59.797Z,44.60
2019-05-02T07:03:28.351Z,43.97
2019-05-02T07:05:58.730Z,40.63
2019-05-02T07:08:27.087Z,45.57
2019-05-02T07:10:55.871Z,44.60
2019-05-02T07:13:25.904Z,43.20
2019-05-02T07:15:56.096Z,40.80
2019-05-02T07:18:26.641Z,46.50
2019-05-02T07:20:55.203Z,49.93
2019-05-02T07:23:24.115Z,55.40
2019-05-02T07:25:52.923Z,54.67
2019-05-02T07:28:23.848Z,55.47
2019-05-02T07:30:54.510Z,53.97
2019-05-02T07:33:22.343Z,61.00
2019-05-02T07:35:55.253Z,64.03
2019-05-02T07:38:25.578Z,63.17
2019-05-02T07:40:52.941Z,59.43
2019-05-02T07:43:22.394Z,62.97
2019-05-02T07:45:51.086Z,62.50
2019-05-02T07:48:19.649Z,56.27
2019-05-02T07:50:48.354Z,58.37
2019-05-02T07:53:17.357Z,61.87
2019-05-02T07:55:48.847Z,60.20
2019-05-02T07:58:16.095Z,67.93
2019-05-02T08:00:44.580Z,58.03
2019-05-02T08:03:13.040Z,66.13
2019-05-02T08:05:41.595Z,57.70
2019-05-02T08:08:10.055Z,62.43
2019-05-02T08:10:38.606Z,64.93
2019-05-02T08:13:07.208Z,71.30
2019-05-02T08:15:35.763Z,69.30
2019-05-02T08:18:04.455Z,60.87
2019-05-02T08:20:32.943Z,62.47
2019-05-02T08:23:01.404Z,66.73
2019-05-02T08:25:29.866Z,59.43
2019-05-02T08:28:18.191Z,59.60
2019-05-02T08:30:48.355Z,63.67
2019-05-02T08:33:16.843Z,69.53
2019-05-02T08:35:45.304Z,63.67
2019-05-02T08:38:17.772Z,67.20
2019-05-02T08:40:47.938Z,77.30
2019-05-02T08:43:14.186Z,76.00
2019-05-02T08:45:42.715Z,71.57
2019-05-02T08:48:11.274Z,74.00
2019-05-02T08:50:39.806Z,67.00
2019-05-02T08:53:08.428Z,73.70
2019-05-02T08:55:41.299Z,77.33
2019-05-02T08:58:14.258Z,72.27
2019-05-02T09:00:39.452Z,68.77
2019-05-02T09:03:07.738Z,75.43
2019-05-02T09:05:42.858Z,68.70
2019-05-02T09:08:09.247Z,70.90
2019-05-02T09:10:37.081Z,68.47
2019-05-02T09:13:06.803Z,69.23
2019-05-02T09:15:39.814Z,68.80
2019-05-02T09:18:05.476Z,74.33
2019-05-02T09:20:33.959Z,69.40
2019-05-02T09:23:02.487Z,71.07
2019-05-02T09:25:32.432Z,70.73
2019-05-02T09:28:01.871Z,69.73
2019-05-02T09:30:32.678Z,67.77
2019-05-02T09:33:02.860Z,75.20
2019-05-02T09:35:32.863Z,63.77
2019-05-02T09:38:01.813Z,64.97
2019-05-02T09:40:31.879Z,63.33
2019-05-02T09:43:02.749Z,60.27
2019-05-02T09:45:36.084Z,61.60
2019-05-02T09:48:07.122Z,59.40
2019-05-02T09:50:34.811Z,58.50
2019-05-02T09:53:03.129Z,60.23
2019-05-02T09:55:31.940Z,56.33
2019-05-02T09:58:02.497Z,59.17
2019-05-02T10:00:42.421Z,56.23
2019-05-02T10:03:12.043Z,55.93
2019-05-02T10:05:42.865Z,60.33
2019-05-02T10:08:13.599Z,61.40
2019-05-02T10:10:44.297Z,56.73
2019-05-02T10:13:12.219Z,52.17
2019-05-02T10:15:42.078Z,52.73
2019-05-02T10:18:13.685Z,46.33
2019-05-02T10:20:41.926Z,54.20
2019-05-02T10:23:12.081Z,52.27
2019-05-02T10:25:46.576Z,53.53
2019-05-02T10:28:13.047Z,47.13
2019-05-02T10:30:42.609Z,42.57
2019-05-02T10:33:12.339Z,42.80
2019-05-02T10:35:45.347Z,46.80
2019-05-02T10:38:18.076Z,45.27
2019-05-02T10:40:48.334Z,47.60
2019-05-02T10:43:14.436Z,42.30
2019-05-02T10:45:47.523Z,43.30
2019-05-02T10:48:24.788Z,40.33
2019-05-02T10:50:52.517Z,38.20
2019-05-02T10:53:21.876Z,39.67
2019-05-02T10:55:52.381Z,41.10
2019-05-02T10:58:23.949Z,64.80
2019-05-02T11:00:52.300Z,45.33
2019-05-02T11:03:32.011Z,39.17
2019-05-02T11:06:07.453Z,45.80
2019-05-02T11:08:36.756Z,46.50
2019-05-02T11:11:06.107Z,62.73
2019-05-02T11:13:47.451Z,34.40
2019-05-02T11:16:33.783Z,40.77
2019-05-02T11:19:03.882Z,32.33
2019-05-02T11:21:32.440Z,34.23
2019-05-02T11:24:02.441Z,33.80
2019-05-02T11:26:32.437Z,32.27
2019-05-02T11:29:03.012Z,31.77
2019-05-02T11:31:32.476Z,27.67
2019-05-02T11:34:01.917Z,26.40
2019-05-02T11:36:32.552Z,25.40
2019-05-02T11:39:10.328Z,30.17
2019-05-02T11:41:31.761Z,32.73
2019-05-02T11:44:02.754Z,29.43
2019-05-02T11:46:32.830Z,31.63
2019-05-02T11:49:02.368Z,29.63
2019-05-02T11:51:32.755Z,29.63
2019-05-02T11:54:05.199Z,30.20
2019-05-02T11:56:33.023Z,28.50
2019-05-02T11:59:02.838Z,31.00
2019-05-02T12:01:37.211Z,32.40
2019-05-02T12:04:03.014Z,34.73
2019-05-02T12:06:33.153Z,33.87
2019-05-02T12:09:03.890Z,26.80
2019-05-02T12:11:32.510Z,28.40
2019-05-02T12:14:01.719Z,30.37
2019-05-02T12:16:32.305Z,23.87
2019-05-02T12:19:09.428Z,27.50
2019-05-02T12:21:32.458Z,25.17
2019-05-02T12:24:02.224Z,26.70
2019-05-02T12:26:32.420Z,26.10
2019-05-02T12:29:02.653Z,25.87
2019-05-02T12:31:32.525Z,26.70
2019-05-02T12:34:02.852Z,26.70
2019-05-02T12:36:33.381Z,26.17
2019-05-02T12:39:02.464Z,27.53
2019-05-02T12:41:33.178Z,26.67
2019-05-02T12:44:02.248Z,28.20
2019-05-02T12:46:31.771Z,38.80
2019-05-02T12:49:02.626Z,28.00
2019-05-02T12:51:31.987Z,28.63
2019-05-02T12:54:02.254Z,31.50
2019-05-02T12:56:32.442Z,28.97
2019-05-02T12:59:02.414Z,27.50
2019-05-02T13:01:32.943Z,29.03
2019-05-02T13:04:03.774Z,27.27
2019-05-02T13:06:32.870Z,31.87
2019-05-02T13:09:03.170Z,28.77
2019-05-02T13:11:37.021Z,32.43
2019-05-02T13:14:04.240Z,29.60
2019-05-02T13:16:33.580Z,27.23
2019-05-02T13:19:06.050Z,31.50
2019-05-02T13:21:42.221Z,29.33
2019-05-02T13:24:12.210Z,35.13
2019-05-02T13:26:37.821Z,32.27
2019-05-02T13:29:06.439Z,28.67
2019-05-02T13:31:39.431Z,25.50
2019-05-02T13:34:11.875Z,31.90
2019-05-02T13:36:46.761Z,30.80
2019-05-02T13:39:21.892Z,24.30
2019-05-02T13:41:52.051Z,26.80
2019-05-02T13:44:25.135Z,26.23
2019-05-02T13:46:53.739Z,29.67
2019-05-02T13:49:22.635Z,25.77
2019-05-02T13:51:52.137Z,30.97
2019-05-02T13:54:22.104Z,27.57
2019-05-02T13:56:52.737Z,31.30
2019-05-02T13:59:22.394Z,30.23
2019-05-02T14:01:52.612Z,31.60
2019-05-02T14:04:23.181Z,27.50
2019-05-02T14:06:52.885Z,25.97
2019-05-02T14:09:23.333Z,29.73
2019-05-02T14:11:53.500Z,26.30
2019-05-02T14:14:22.783Z,25.10
2019-05-02T14:16:53.044Z,25.23
2019-05-02T14:19:22.259Z,23.80
2019-05-02T14:21:51.841Z,23.60
2019-05-02T14:24:23.184Z,25.30
2019-05-02T14:26:52.531Z,24.17
2019-05-02T14:29:21.712Z,30.20
2019-05-02T14:31:51.944Z,30.63
2019-05-02T14:34:24.846Z,29.90
2019-05-02T14:36:58.988Z,23.23
2019-05-02T14:39:23.884Z,20.27
2019-05-02T14:41:52.657Z,23.47
2019-05-02T14:44:23.317Z,21.70
2019-05-02T14:46:52.384Z,24.10
2019-05-02T14:49:23.963Z,23.97
2019-05-02T14:51:52.557Z,21.63
2019-05-02T14:54:22.914Z,19.57
2019-05-02T14:56:53.311Z,23.60
2019-05-02T14:59:22.841Z,27.30
2019-05-02T15:01:57.762Z,24.13
2019-05-02T15:04:23.400Z,24.17
2019-05-02T15:06:52.520Z,19.90
2019-05-02T15:09:26.357Z,26.10
2019-05-02T15:12:02.826Z,20.17
2019-05-02T15:14:33.224Z,19.87
2019-05-02T15:17:02.815Z,19.83
2019-05-02T15:19:32.964Z,24.60
2019-05-02T15:22:02.269Z,22.87
2019-05-02T15:24:33.451Z,24.13
2019-05-02T15:27:03.654Z,23.70
2019-05-02T15:29:32.186Z,18.53
2019-05-02T15:32:22.238Z,21.60
2019-05-02T15:35:12.813Z,20.23
2019-05-02T15:37:41.756Z,19.47
2019-05-02T15:42:42.828Z,20.20
2019-05-02T15:45:12.506Z,17.97
2019-05-02T15:47:41.925Z,17.17
2019-05-02T15:50:14.687Z,23.23
2019-05-02T15:52:44.871Z,23.53
2019-05-02T15:55:13.503Z,13.73
2019-05-02T15:57:45.887Z,18.43
2019-05-02T16:00:17.141Z,20.43
2019-05-02T16:02:44.510Z,24.70
2019-05-02T16:05:13.879Z,16.23
2019-05-02T16:07:45.514Z,17.20
2019-05-02T16:10:13.383Z,15.80
2019-05-02T16:12:43.516Z,16.07
2019-05-02T16:15:18.255Z,19.27
2019-05-02T16:17:42.397Z,20.57
2019-05-02T16:20:13.401Z,15.50
2019-05-02T16:22:46.270Z,18.37
2019-05-02T16:25:12.737Z,17.17
2019-05-02T16:27:48.719Z,20.13
2019-05-02T16:30:22.134Z,19.30
2019-05-02T16:33:02.504Z,19.60
2019-05-02T16:35:32.622Z,23.60
2019-05-02T16:38:01.240Z,17.00
2019-05-02T16:40:32.280Z,19.20
2019-05-02T16:43:00.295Z,17.50
2019-05-02T16:45:28.860Z,17.57
2019-05-02T16:48:00.153Z,16.57
2019-05-02T16:50:32.369Z,18.77
2019-05-02T16:52:57.876Z,22.27
2019-05-02T16:55:26.863Z,19.70
2019-05-02T16:57:56.615Z,15.67
2019-05-02T17:00:26.719Z,17.17
2019-05-02T17:02:55.609Z,14.23
2019-05-02T17:05:24.238Z,15.37
2019-05-02T17:08:03.223Z,14.90
2019-05-02T17:10:35.061Z,19.67
2019-05-02T17:13:04.039Z,18.20
2019-05-02T17:15:35.229Z,17.07
2019-05-02T17:18:12.693Z,18.80
2019-05-02T17:20:36.147Z,19.50
2019-05-02T17:23:07.594Z,23.10
2019-05-02T17:25:35.239Z,24.83
2019-05-02T17:28:09.784Z,25.73
2019-05-02T17:30:38.938Z,20.93
2019-05-02T17:33:07.314Z,22.67
2019-05-02T17:35:34.811Z,21.40
2019-05-02T17:38:03.416Z,27.63
2019-05-02T17:40:32.034Z,22.77
2019-05-02T17:43:02.775Z,21.57
2019-05-02T17:45:33.522Z,25.57
2019-05-02T17:48:01.295Z,24.13
2019-05-02T17:50:34.367Z,22.17
2019-05-02T17:53:04.495Z,20.27
2019-05-02T17:55:40.238Z,21.60
2019-05-02T17:58:12.474Z,20.80
2019-05-02T18:00:36.415Z,24.17
2019-05-02T18:03:05.439Z,65.37
2019-05-02T18:05:35.812Z,28.67
2019-05-02T18:08:05.865Z,23.33
2019-05-02T18:10:35.999Z,22.80
2019-05-02T18:13:05.411Z,26.13
2019-05-02T18:15:34.876Z,21.30
2019-05-02T18:18:06.959Z,27.10
2019-05-02T18:20:37.104Z,29.50
2019-05-02T18:23:06.054Z,22.87
2019-05-02T18:25:34.742Z,23.57
2019-05-02T18:28:03.267Z,25.30
2019-05-02T18:30:31.767Z,22.73
2019-05-02T18:33:03.489Z,25.30
2019-05-02T18:35:32.419Z,25.43
2019-05-02T18:38:02.529Z,20.13
2019-05-02T18:40:32.067Z,23.07
2019-05-02T18:43:02.194Z,28.30
2019-05-02T18:45:31.874Z,26.07
2019-05-02T18:48:05.216Z,23.07
2019-05-02T18:50:44.391Z,24.63
2019-05-02T18:53:10.100Z,21.47
2019-05-02T18:55:39.404Z,23.03
2019-05-02T18:58:08.706Z,21.97
2019-05-02T19:00:39.613Z,22.80
2019-05-02T19:03:13.281Z,28.20
2019-05-02T19:05:42.255Z,31.87
2019-05-02T19:08:12.067Z,25.03
2019-05-02T19:10:44.699Z,25.80
2019-05-02T19:13:12.731Z,21.60
2019-05-02T19:15:45.440Z,23.10
2019-05-02T19:18:17.963Z,71.73
2019-05-02T19:20:57.594Z,65.73
2019-05-02T19:23:24.957Z,24.50
2019-05-02T19:25:53.841Z,25.20
2019-05-02T19:28:32.231Z,23.40
2019-05-02T19:31:02.930Z,25.90
2019-05-02T19:33:29.008Z,28.07
2019-05-02T19:35:57.563Z,28.87
2019-05-02T19:38:26.350Z,27.97
2019-05-02T19:40:58.119Z,25.57
2019-05-02T19:43:25.804Z,26.67
2019-05-02T19:45:54.269Z,26.53
2019-05-02T19:48:27.460Z,25.97
2019-05-02T19:50:53.453Z,28.13
2019-05-02T19:53:22.818Z,25.93
2019-05-02T19:55:51.999Z,29.20
2019-05-02T19:58:21.004Z,25.77
2019-05-02T20:00:50.099Z,30.50
2019-05-02T20:03:25.514Z,29.77
2019-05-02T20:05:51.775Z,30.53
2019-05-02T20:08:24.068Z,33.10
2019-05-02T20:10:56.697Z,32.23
2019-05-02T20:13:27.932Z,33.87
2019-05-02T20:16:05.761Z,32.50
2019-05-02T20:18:34.978Z,31.90
2019-05-02T20:21:27.583Z,34.40
2019-05-02T20:23:53.667Z,31.97
2019-05-02T20:26:22.414Z,34.37
2019-05-02T20:28:52.801Z,29.60
2019-05-02T20:31:21.763Z,32.73
2019-05-02T20:33:51.903Z,28.43
2019-05-02T20:36:22.609Z,32.37
2019-05-02T20:38:52.601Z,33.93
2019-05-02T20:41:22.415Z,33.33
2019-05-02T20:43:51.704Z,30.13
2019-05-02T20:46:21.848Z,30.27
2019-05-02T20:48:52.397Z,26.23
2019-05-02T20:51:22.586Z,30.17
2019-05-02T20:53:52.629Z,25.53
2019-05-02T20:56:23.000Z,18.27
2019-05-02T20:58:52.693Z,26.83
2019-05-02T21:01:21.406Z,19.00
2019-05-02T21:03:52.069Z,21.90
2019-05-02T21:06:37.541Z,21.13
2019-05-02T21:08:56.800Z,19.93
2019-05-02T21:11:26.520Z,23.27
2019-05-02T21:13:55.076Z,23.73
2019-05-02T21:16:23.536Z,21.37
2019-05-02T21:18:52.288Z,21.27
2019-05-02T21:21:22.065Z,25.33
2019-05-02T21:23:52.785Z,18.93
2019-05-02T21:26:22.071Z,24.77
2019-05-02T21:28:52.160Z,24.80
2019-05-02T21:31:22.504Z,24.00
2019-05-02T21:33:51.970Z,24.40
2019-05-02T21:36:22.558Z,18.90
2019-05-02T21:38:52.105Z,20.90
2019-05-02T21:41:22.246Z,19.43
2019-05-02T21:43:51.901Z,25.27
2019-05-02T21:46:22.335Z,21.57
2019-05-02T21:48:52.658Z,23.60
2019-05-02T21:51:28.956Z,23.97
2019-05-02T21:53:59.083Z,24.03
2019-05-02T21:56:37.811Z,25.73
2019-05-02T21:59:08.013Z,25.67
2019-05-02T22:01:43.644Z,24.90
2019-05-02T22:04:13.119Z,27.20
2019-05-02T22:06:42.693Z,21.30
2019-05-02T22:09:12.355Z,23.43
2019-05-02T22:11:42.889Z,25.13
2019-05-02T22:14:13.432Z,23.63
2019-05-02T22:16:42.649Z,20.93
2019-05-02T22:19:11.271Z,22.63
2019-05-02T22:21:39.820Z,22.73
2019-05-02T22:24:11.671Z,19.43
2019-05-02T22:26:38.616Z,23.77
2019-05-02T22:29:07.707Z,25.93
2019-05-02T22:31:36.309Z,25.67
2019-05-02T22:34:04.932Z,30.60
2019-05-02T22:36:33.531Z,28.83
2019-05-02T22:39:12.995Z,24.87
2019-05-02T22:41:41.992Z,23.80
2019-05-02T22:44:12.457Z,26.60
2019-05-02T22:46:43.328Z,26.50
2019-05-02T22:49:14.490Z,26.00
2019-05-02T22:51:43.947Z,29.73
2019-05-02T22:54:24.038Z,26.03
2019-05-02T22:56:42.875Z,28.73
2019-05-02T22:59:11.544Z,27.70
2019-05-02T23:01:41.957Z,31.30
2019-05-02T23:04:12.520Z,23.73
2019-05-02T23:06:43.919Z,25.70
2019-05-02T23:09:12.712Z,27.13
2019-05-02T23:11:42.661Z,23.83
2019-05-02T23:14:11.509Z,28.73
2019-05-02T23:16:42.372Z,26.73
2019-05-02T23:19:12.031Z,25.13
2019-05-02T23:21:42.252Z,27.57
2019-05-02T23:24:14.672Z,28.03
2019-05-02T23:26:57.275Z,27.53
2019-05-02T23:29:25.808Z,30.43
2019-05-02T23:31:54.446Z,27.03
2019-05-02T23:34:23.606Z,28.80
2019-05-02T23:36:52.426Z,29.43
2019-05-02T23:39:21.308Z,26.80
2019-05-02T23:41:49.868Z,27.47
2019-05-02T23:44:18.474Z,26.73
2019-05-02T23:46:47.475Z,28.10
2019-05-02T23:49:15.931Z,31.37
2019-05-02T23:51:44.416Z,34.33
2019-05-02T23:54:13.174Z,32.23
2019-05-02T23:56:43.052Z,33.87
2019-05-02T23:59:12.227Z,35.83
